sensor_id;sensor_type;location;lat;lon;timestamp;P1;durP1;ratioP1;P2;durP2;ratioP2
26512;SDS011;14186;53.822;10.152;2024-01-06T00:00:13;7.30;;;3.78;;
26512;SDS011;14186;53.822;10.152;2024-01-06T00:05:13;7.28;;;3.22;;
26512;SDS011;14186;53.822;10.152;2024-01-06T00:10:14;5.32;;;3.03;;
26512;SDS011;14186;53.822;10.152;2024-01-06T00:15:15;7.90;;;3.42;;
26512;SDS011;14186;53.822;10.152;2024-01-06T00:20:16;5.60;;;2.50;;
26512;SDS011;14186;53.822;10.152;2024-01-06T00:25:16;9.15;;;3.53;;
26512;SDS011;14186;53.822;10.152;2024-01-06T00:30:17;7.35;;;3.35;;
26512;SDS011;14186;53.822;10.152;2024-01-06T00:35:18;6.65;;;2.92;;
26512;SDS011;14186;53.822;10.152;2024-01-06T00:40:18;11.30;;;4.53;;
26512;SDS011;14186;53.822;10.152;2024-01-06T00:45:19;11.15;;;3.90;;
26512;SDS011;14186;53.822;10.152;2024-01-06T00:50:20;9.43;;;3.22;;
26512;SDS011;14186;53.822;10.152;2024-01-06T00:55:20;8.10;;;3.55;;
26512;SDS011;14186;53.822;10.152;2024-01-06T01:00:21;8.40;;;3.60;;
26512;SDS011;14186;53.822;10.152;2024-01-06T01:05:22;8.82;;;4.25;;
26512;SDS011;14186;53.822;10.152;2024-01-06T01:10:22;6.85;;;3.72;;
26512;SDS011;14186;53.822;10.152;2024-01-06T01:15:24;9.60;;;4.40;;
26512;SDS011;14186;53.822;10.152;2024-01-06T01:20:24;7.60;;;4.28;;
26512;SDS011;14186;53.822;10.152;2024-01-06T01:25:24;9.18;;;4.40;;
26512;SDS011;14186;53.822;10.152;2024-01-06T01:30:26;9.45;;;4.32;;
26512;SDS011;14186;53.822;10.152;2024-01-06T01:35:26;8.00;;;3.83;;
26512;SDS011;14186;53.822;10.152;2024-01-06T01:40:27;10.77;;;4.63;;
26512;SDS011;14186;53.822;10.152;2024-01-06T01:45:28;8.50;;;4.68;;
26512;SDS011;14186;53.822;10.152;2024-01-06T01:50:28;9.52;;;4.13;;
26512;SDS011;14186;53.822;10.152;2024-01-06T01:55:29;13.90;;;5.10;;
26512;SDS011;14186;53.822;10.152;2024-01-06T02:00:30;9.25;;;4.55;;
26512;SDS011;14186;53.822;10.152;2024-01-06T02:05:31;10.18;;;4.75;;
26512;SDS011;14186;53.822;10.152;2024-01-06T02:10:31;9.93;;;4.25;;
26512;SDS011;14186;53.822;10.152;2024-01-06T02:15:33;7.35;;;4.20;;
26512;SDS011;14186;53.822;10.152;2024-01-06T02:20:33;13.57;;;5.53;;
26512;SDS011;14186;53.822;10.152;2024-01-06T02:25:35;9.38;;;4.43;;
26512;SDS011;14186;53.822;10.152;2024-01-06T02:30:35;8.55;;;4.00;;
26512;SDS011;14186;53.822;10.152;2024-01-06T02:35:35;7.97;;;4.40;;
26512;SDS011;14186;53.822;10.152;2024-01-06T02:40:37;10.45;;;4.93;;
26512;SDS011;14186;53.822;10.152;2024-01-06T02:45:37;10.68;;;5.25;;
26512;SDS011;14186;53.822;10.152;2024-01-06T02:50:37;10.55;;;4.90;;
26512;SDS011;14186;53.822;10.152;2024-01-06T02:55:39;10.82;;;5.03;;
26512;SDS011;14186;53.822;10.152;2024-01-06T03:00:39;13.20;;;4.40;;
26512;SDS011;14186;53.822;10.152;2024-01-06T03:05:39;11.63;;;5.13;;
26512;SDS011;14186;53.822;10.152;2024-01-06T03:10:41;9.48;;;4.47;;
26512;SDS011;14186;53.822;10.152;2024-01-06T03:15:41;10.27;;;4.63;;
26512;SDS011;14186;53.822;10.152;2024-01-06T03:20:42;9.65;;;5.07;;
26512;SDS011;14186;53.822;10.152;2024-01-06T03:25:43;9.43;;;4.53;;
26512;SDS011;14186;53.822;10.152;2024-01-06T03:30:43;9.23;;;4.30;;
26512;SDS011;14186;53.822;10.152;2024-01-06T03:35:44;10.65;;;5.18;;
26512;SDS011;14186;53.822;10.152;2024-01-06T03:40:45;13.43;;;4.95;;
26512;SDS011;14186;53.822;10.152;2024-01-06T03:45:46;11.63;;;5.93;;
26512;SDS011;14186;53.822;10.152;2024-01-06T03:50:46;14.40;;;5.57;;
26512;SDS011;14186;53.822;10.152;2024-01-06T03:55:47;10.68;;;5.38;;
26512;SDS011;14186;53.822;10.152;2024-01-06T04:00:48;12.35;;;5.15;;
26512;SDS011;14186;53.822;10.152;2024-01-06T04:05:48;10.35;;;5.15;;
26512;SDS011;14186;53.822;10.152;2024-01-06T04:10:50;15.20;;;5.57;;
26512;SDS011;14186;53.822;10.152;2024-01-06T04:15:50;9.85;;;5.70;;
26512;SDS011;14186;53.822;10.152;2024-01-06T04:20:50;12.52;;;5.45;;
26512;SDS011;14186;53.822;10.152;2024-01-06T04:25:52;11.48;;;4.75;;
26512;SDS011;14186;53.822;10.152;2024-01-06T04:30:52;11.73;;;5.53;;
26512;SDS011;14186;53.822;10.152;2024-01-06T04:35:52;11.95;;;5.38;;
26512;SDS011;14186;53.822;10.152;2024-01-06T04:40:54;15.20;;;6.88;;
26512;SDS011;14186;53.822;10.152;2024-01-06T04:45:54;15.45;;;5.45;;
26512;SDS011;14186;53.822;10.152;2024-01-06T04:50:54;12.82;;;6.03;;
26512;SDS011;14186;53.822;10.152;2024-01-06T04:55:56;15.48;;;7.05;;
26512;SDS011;14186;53.822;10.152;2024-01-06T05:00:56;11.93;;;5.85;;
26512;SDS011;14186;53.822;10.152;2024-01-06T05:05:56;15.00;;;5.72;;
26512;SDS011;14186;53.822;10.152;2024-01-06T05:10:58;13.30;;;6.13;;
26512;SDS011;14186;53.822;10.152;2024-01-06T05:15:59;11.98;;;6.47;;
26512;SDS011;14186;53.822;10.152;2024-01-06T05:20:59;11.68;;;5.53;;
26512;SDS011;14186;53.822;10.152;2024-01-06T05:26:00;16.17;;;6.05;;
26512;SDS011;14186;53.822;10.152;2024-01-06T05:31:01;12.20;;;6.28;;
26512;SDS011;14186;53.822;10.152;2024-01-06T05:36:01;12.23;;;5.60;;
26512;SDS011;14186;53.822;10.152;2024-01-06T05:41:03;11.73;;;5.65;;
26512;SDS011;14186;53.822;10.152;2024-01-06T05:46:03;12.25;;;5.90;;
26512;SDS011;14186;53.822;10.152;2024-01-06T05:51:03;13.43;;;6.15;;
26512;SDS011;14186;53.822;10.152;2024-01-06T05:56:06;15.43;;;6.60;;
26512;SDS011;14186;53.822;10.152;2024-01-06T06:01:06;12.93;;;6.30;;
26512;SDS011;14186;53.822;10.152;2024-01-06T06:06:06;12.82;;;5.40;;
26512;SDS011;14186;53.822;10.152;2024-01-06T06:11:08;15.68;;;6.30;;
26512;SDS011;14186;53.822;10.152;2024-01-06T06:16:08;11.93;;;4.45;;
26512;SDS011;14186;53.822;10.152;2024-01-06T06:21:09;10.88;;;5.07;;
26512;SDS011;14186;53.822;10.152;2024-01-06T06:26:11;10.57;;;5.30;;
26512;SDS011;14186;53.822;10.152;2024-01-06T06:31:11;14.43;;;6.25;;
26512;SDS011;14186;53.822;10.152;2024-01-06T06:36:11;11.10;;;5.25;;
26512;SDS011;14186;53.822;10.152;2024-01-06T06:41:13;12.55;;;4.85;;
26512;SDS011;14186;53.822;10.152;2024-01-06T06:46:13;10.43;;;4.72;;
26512;SDS011;14186;53.822;10.152;2024-01-06T06:51:13;10.18;;;5.22;;
26512;SDS011;14186;53.822;10.152;2024-01-06T06:56:15;11.35;;;4.47;;
26512;SDS011;14186;53.822;10.152;2024-01-06T07:01:15;10.75;;;5.20;;
26512;SDS011;14186;53.822;10.152;2024-01-06T07:06:16;9.32;;;4.80;;
26512;SDS011;14186;53.822;10.152;2024-01-06T07:11:17;7.55;;;3.92;;
26512;SDS011;14186;53.822;10.152;2024-01-06T07:16:17;13.48;;;6.25;;
26512;SDS011;14186;53.822;10.152;2024-01-06T07:21:18;10.93;;;4.72;;
26512;SDS011;14186;53.822;10.152;2024-01-06T07:26:19;10.05;;;5.28;;
26512;SDS011;14186;53.822;10.152;2024-01-06T07:31:20;10.48;;;4.50;;
26512;SDS011;14186;53.822;10.152;2024-01-06T07:36:20;12.07;;;4.40;;
26512;SDS011;14186;53.822;10.152;2024-01-06T07:41:22;10.38;;;5.30;;
26512;SDS011;14186;53.822;10.152;2024-01-06T07:46:22;13.38;;;4.82;;
26512;SDS011;14186;53.822;10.152;2024-01-06T07:51:22;11.80;;;4.97;;
26512;SDS011;14186;53.822;10.152;2024-01-06T07:56:24;9.75;;;4.40;;
26512;SDS011;14186;53.822;10.152;2024-01-06T08:01:24;14.13;;;5.45;;
26512;SDS011;14186;53.822;10.152;2024-01-06T08:06:25;14.55;;;4.93;;
26512;SDS011;14186;53.822;10.152;2024-01-06T08:11:27;11.10;;;4.50;;
26512;SDS011;14186;53.822;10.152;2024-01-06T08:16:27;8.70;;;4.60;;
26512;SDS011;14186;53.822;10.152;2024-01-06T08:21:27;8.23;;;4.18;;
26512;SDS011;14186;53.822;10.152;2024-01-06T08:26:29;10.02;;;4.00;;
26512;SDS011;14186;53.822;10.152;2024-01-06T08:31:29;12.70;;;4.95;;
26512;SDS011;14186;53.822;10.152;2024-01-06T08:36:29;8.52;;;4.38;;
26512;SDS011;14186;53.822;10.152;2024-01-06T08:41:31;11.80;;;4.20;;
26512;SDS011;14186;53.822;10.152;2024-01-06T08:46:31;11.48;;;4.43;;
26512;SDS011;14186;53.822;10.152;2024-01-06T08:51:31;14.27;;;4.70;;
26512;SDS011;14186;53.822;10.152;2024-01-06T08:56:33;8.63;;;3.92;;
26512;SDS011;14186;53.822;10.152;2024-01-06T09:01:34;8.13;;;3.97;;
26512;SDS011;14186;53.822;10.152;2024-01-06T09:06:34;9.90;;;4.68;;
26512;SDS011;14186;53.822;10.152;2024-01-06T09:11:36;12.05;;;3.47;;
26512;SDS011;14186;53.822;10.152;2024-01-06T09:16:36;8.73;;;4.25;;
26512;SDS011;14186;53.822;10.152;2024-01-06T09:21:36;9.75;;;3.60;;
26512;SDS011;14186;53.822;10.152;2024-01-06T09:26:38;10.88;;;4.55;;
26512;SDS011;14186;53.822;10.152;2024-01-06T09:31:38;11.13;;;5.68;;
26512;SDS011;14186;53.822;10.152;2024-01-06T09:36:38;11.02;;;5.03;;
26512;SDS011;14186;53.822;10.152;2024-01-06T09:41:40;12.48;;;4.38;;
26512;SDS011;14186;53.822;10.152;2024-01-06T09:46:40;11.70;;;4.70;;
26512;SDS011;14186;53.822;10.152;2024-01-06T09:51:41;12.02;;;4.68;;
26512;SDS011;14186;53.822;10.152;2024-01-06T09:56:44;10.13;;;5.22;;
26512;SDS011;14186;53.822;10.152;2024-01-06T10:01:45;9.48;;;3.92;;
26512;SDS011;14186;53.822;10.152;2024-01-06T10:06:45;9.57;;;4.40;;
26512;SDS011;14186;53.822;10.152;2024-01-06T10:11:47;14.23;;;4.53;;
26512;SDS011;14186;53.822;10.152;2024-01-06T10:16:47;7.68;;;3.22;;
26512;SDS011;14186;53.822;10.152;2024-01-06T10:21:47;9.77;;;3.53;;
26512;SDS011;14186;53.822;10.152;2024-01-06T10:26:49;11.43;;;3.50;;
26512;SDS011;14186;53.822;10.152;2024-01-06T10:31:50;8.65;;;4.38;;
26512;SDS011;14186;53.822;10.152;2024-01-06T10:36:51;11.02;;;3.38;;
26512;SDS011;14186;53.822;10.152;2024-01-06T10:41:52;8.20;;;3.53;;
26512;SDS011;14186;53.822;10.152;2024-01-06T10:46:54;6.55;;;2.80;;
26512;SDS011;14186;53.822;10.152;2024-01-06T10:51:55;8.57;;;2.60;;
26512;SDS011;14186;53.822;10.152;2024-01-06T10:56:58;8.23;;;2.95;;
26512;SDS011;14186;53.822;10.152;2024-01-06T11:01:59;6.93;;;3.13;;
26512;SDS011;14186;53.822;10.152;2024-01-06T11:07:00;4.75;;;2.30;;
26512;SDS011;14186;53.822;10.152;2024-01-06T11:12:01;8.88;;;3.28;;
26512;SDS011;14186;53.822;10.152;2024-01-06T11:17:02;4.53;;;1.70;;
26512;SDS011;14186;53.822;10.152;2024-01-06T11:27:19;5.70;;;2.53;;
26512;SDS011;14186;53.822;10.152;2024-01-06T11:32:20;6.47;;;2.88;;
26512;SDS011;14186;53.822;10.152;2024-01-06T11:37:24;6.65;;;2.63;;
26512;SDS011;14186;53.822;10.152;2024-01-06T11:42:33;7.30;;;2.92;;
26512;SDS011;14186;53.822;10.152;2024-01-06T11:47:33;5.93;;;2.25;;
26512;SDS011;14186;53.822;10.152;2024-01-06T11:52:33;5.55;;;2.60;;
26512;SDS011;14186;53.822;10.152;2024-01-06T11:57:36;3.65;;;2.03;;
26512;SDS011;14186;53.822;10.152;2024-01-06T12:02:36;7.18;;;2.00;;
26512;SDS011;14186;53.822;10.152;2024-01-06T12:07:36;3.47;;;2.07;;
26512;SDS011;14186;53.822;10.152;2024-01-06T12:12:39;4.85;;;2.20;;
26512;SDS011;14186;53.822;10.152;2024-01-06T12:17:39;6.32;;;2.20;;
26512;SDS011;14186;53.822;10.152;2024-01-06T12:22:39;5.78;;;2.50;;
26512;SDS011;14186;53.822;10.152;2024-01-06T12:27:42;4.65;;;2.42;;
26512;SDS011;14186;53.822;10.152;2024-01-06T12:32:43;7.70;;;2.22;;
26512;SDS011;14186;53.822;10.152;2024-01-06T12:37:44;5.22;;;2.60;;
26512;SDS011;14186;53.822;10.152;2024-01-06T12:42:46;5.50;;;2.33;;
26512;SDS011;14186;53.822;10.152;2024-01-06T12:47:46;5.18;;;2.28;;
26512;SDS011;14186;53.822;10.152;2024-01-06T12:52:46;5.07;;;2.13;;
26512;SDS011;14186;53.822;10.152;2024-01-06T12:57:48;11.48;;;3.33;;
26512;SDS011;14186;53.822;10.152;2024-01-06T13:02:49;5.82;;;2.65;;
26512;SDS011;14186;53.822;10.152;2024-01-06T13:07:49;7.28;;;2.72;;
26512;SDS011;14186;53.822;10.152;2024-01-06T13:12:50;5.75;;;2.58;;
26512;SDS011;14186;53.822;10.152;2024-01-06T13:17:51;7.25;;;3.13;;
26512;SDS011;14186;53.822;10.152;2024-01-06T13:22:51;4.32;;;1.65;;
26512;SDS011;14186;53.822;10.152;2024-01-06T13:27:53;7.65;;;2.20;;
26512;SDS011;14186;53.822;10.152;2024-01-06T13:32:53;8.05;;;2.78;;
26512;SDS011;14186;53.822;10.152;2024-01-06T13:37:53;5.15;;;2.20;;
26512;SDS011;14186;53.822;10.152;2024-01-06T13:42:55;8.40;;;2.78;;
26512;SDS011;14186;53.822;10.152;2024-01-06T13:47:55;4.35;;;1.98;;
26512;SDS011;14186;53.822;10.152;2024-01-06T13:52:55;4.65;;;2.20;;
26512;SDS011;14186;53.822;10.152;2024-01-06T13:57:57;5.88;;;2.72;;
26512;SDS011;14186;53.822;10.152;2024-01-06T14:02:57;6.18;;;2.85;;
26512;SDS011;14186;53.822;10.152;2024-01-06T14:07:57;5.88;;;2.30;;
26512;SDS011;14186;53.822;10.152;2024-01-06T14:12:59;5.55;;;2.60;;
26512;SDS011;14186;53.822;10.152;2024-01-06T14:17:59;6.30;;;3.28;;
26512;SDS011;14186;53.822;10.152;2024-01-06T14:22:59;7.72;;;2.97;;
26512;SDS011;14186;53.822;10.152;2024-01-06T14:28:01;5.00;;;2.70;;
26512;SDS011;14186;53.822;10.152;2024-01-06T14:33:01;9.82;;;2.40;;
26512;SDS011;14186;53.822;10.152;2024-01-06T14:38:01;5.55;;;2.97;;
26512;SDS011;14186;53.822;10.152;2024-01-06T14:43:03;7.18;;;2.50;;
26512;SDS011;14186;53.822;10.152;2024-01-06T14:48:04;7.25;;;3.15;;
26512;SDS011;14186;53.822;10.152;2024-01-06T14:53:05;6.90;;;2.95;;
26512;SDS011;14186;53.822;10.152;2024-01-06T14:58:07;8.55;;;3.20;;
26512;SDS011;14186;53.822;10.152;2024-01-06T15:03:07;7.40;;;3.40;;
26512;SDS011;14186;53.822;10.152;2024-01-06T15:08:08;7.45;;;2.50;;
26512;SDS011;14186;53.822;10.152;2024-01-06T15:13:09;4.32;;;2.50;;
26512;SDS011;14186;53.822;10.152;2024-01-06T15:18:10;10.32;;;3.28;;
26512;SDS011;14186;53.822;10.152;2024-01-06T15:23:10;4.95;;;2.45;;
26512;SDS011;14186;53.822;10.152;2024-01-06T15:28:12;8.38;;;2.42;;
26512;SDS011;14186;53.822;10.152;2024-01-06T15:33:12;5.65;;;2.88;;
26512;SDS011;14186;53.822;10.152;2024-01-06T15:38:12;7.70;;;3.00;;
26512;SDS011;14186;53.822;10.152;2024-01-06T15:43:14;4.43;;;1.75;;
26512;SDS011;14186;53.822;10.152;2024-01-06T15:48:14;5.70;;;2.70;;
26512;SDS011;14186;53.822;10.152;2024-01-06T15:53:14;5.47;;;3.40;;
26512;SDS011;14186;53.822;10.152;2024-01-06T15:58:16;5.72;;;2.17;;
26512;SDS011;14186;53.822;10.152;2024-01-06T16:03:17;4.75;;;1.92;;
26512;SDS011;14186;53.822;10.152;2024-01-06T16:08:17;3.05;;;1.63;;
26512;SDS011;14186;53.822;10.152;2024-01-06T16:13:19;3.97;;;1.80;;
26512;SDS011;14186;53.822;10.152;2024-01-06T16:18:19;3.45;;;1.63;;
26512;SDS011;14186;53.822;10.152;2024-01-06T16:23:19;4.80;;;1.77;;
26512;SDS011;14186;53.822;10.152;2024-01-06T16:28:21;4.85;;;2.03;;
26512;SDS011;14186;53.822;10.152;2024-01-06T16:33:21;4.32;;;1.92;;
26512;SDS011;14186;53.822;10.152;2024-01-06T16:38:22;7.03;;;2.00;;
26512;SDS011;14186;53.822;10.152;2024-01-06T16:43:23;5.35;;;2.00;;
26512;SDS011;14186;53.822;10.152;2024-01-06T16:48:23;7.72;;;2.45;;
26512;SDS011;14186;53.822;10.152;2024-01-06T16:53:24;5.80;;;2.75;;
26512;SDS011;14186;53.822;10.152;2024-01-06T16:58:26;8.13;;;3.10;;
26512;SDS011;14186;53.822;10.152;2024-01-06T17:03:26;8.13;;;3.03;;
26512;SDS011;14186;53.822;10.152;2024-01-06T17:08:26;9.68;;;4.10;;
26512;SDS011;14186;53.822;10.152;2024-01-06T17:13:28;6.97;;;2.97;;
26512;SDS011;14186;53.822;10.152;2024-01-06T17:18:28;4.32;;;2.33;;
26512;SDS011;14186;53.822;10.152;2024-01-06T17:23:28;3.85;;;1.77;;
26512;SDS011;14186;53.822;10.152;2024-01-06T17:28:29;4.25;;;1.55;;
26512;SDS011;14186;53.822;10.152;2024-01-06T17:33:30;3.30;;;1.67;;
26512;SDS011;14186;53.822;10.152;2024-01-06T17:38:30;4.00;;;2.30;;
26512;SDS011;14186;53.822;10.152;2024-01-06T17:43:31;9.55;;;2.25;;
26512;SDS011;14186;53.822;10.152;2024-01-06T17:48:32;2.58;;;1.25;;
26512;SDS011;14186;53.822;10.152;2024-01-06T17:53:32;4.70;;;1.70;;
26512;SDS011;14186;53.822;10.152;2024-01-06T17:58:34;3.05;;;1.38;;
26512;SDS011;14186;53.822;10.152;2024-01-06T18:03:34;3.65;;;1.20;;
26512;SDS011;14186;53.822;10.152;2024-01-06T18:08:34;7.85;;;1.63;;
26512;SDS011;14186;53.822;10.152;2024-01-06T18:13:36;2.55;;;1.33;;
26512;SDS011;14186;53.822;10.152;2024-01-06T18:18:36;4.15;;;1.10;;
26512;SDS011;14186;53.822;10.152;2024-01-06T18:23:36;3.85;;;1.45;;
26512;SDS011;14186;53.822;10.152;2024-01-06T18:28:38;4.95;;;2.08;;
26512;SDS011;14186;53.822;10.152;2024-01-06T18:33:38;7.07;;;1.58;;
26512;SDS011;14186;53.822;10.152;2024-01-06T18:38:38;3.10;;;1.70;;
26512;SDS011;14186;53.822;10.152;2024-01-06T18:43:40;6.00;;;1.85;;
26512;SDS011;14186;53.822;10.152;2024-01-06T18:48:40;3.80;;;1.73;;
26512;SDS011;14186;53.822;10.152;2024-01-06T18:53:40;5.47;;;1.50;;
26512;SDS011;14186;53.822;10.152;2024-01-06T18:58:42;4.25;;;1.23;;
26512;SDS011;14186;53.822;10.152;2024-01-06T19:03:42;9.63;;;1.40;;
26512;SDS011;14186;53.822;10.152;2024-01-06T19:08:42;3.95;;;1.35;;
26512;SDS011;14186;53.822;10.152;2024-01-06T19:13:44;2.22;;;1.00;;
26512;SDS011;14186;53.822;10.152;2024-01-06T19:18:44;5.65;;;1.08;;
26512;SDS011;14186;53.822;10.152;2024-01-06T19:23:44;1.13;;;0.73;;
26512;SDS011;14186;53.822;10.152;2024-01-06T19:28:46;2.42;;;1.23;;
26512;SDS011;14186;53.822;10.152;2024-01-06T19:33:46;2.25;;;0.80;;
26512;SDS011;14186;53.822;10.152;2024-01-06T19:38:47;4.13;;;0.98;;
26512;SDS011;14186;53.822;10.152;2024-01-06T19:43:49;1.77;;;0.97;;
26512;SDS011;14186;53.822;10.152;2024-01-06T19:48:49;3.03;;;1.05;;
26512;SDS011;14186;53.822;10.152;2024-01-06T19:53:49;3.28;;;1.10;;
26512;SDS011;14186;53.822;10.152;2024-01-06T19:58:51;4.78;;;0.90;;
26512;SDS011;14186;53.822;10.152;2024-01-06T20:03:51;3.20;;;1.02;;
26512;SDS011;14186;53.822;10.152;2024-01-06T20:08:51;5.43;;;1.45;;
26512;SDS011;14186;53.822;10.152;2024-01-06T20:13:53;5.72;;;1.88;;
26512;SDS011;14186;53.822;10.152;2024-01-06T20:18:53;3.63;;;1.65;;
26512;SDS011;14186;53.822;10.152;2024-01-06T20:23:53;6.28;;;1.40;;
26512;SDS011;14186;53.822;10.152;2024-01-06T20:28:55;7.47;;;1.17;;
26512;SDS011;14186;53.822;10.152;2024-01-06T20:33:55;1.30;;;0.80;;
26512;SDS011;14186;53.822;10.152;2024-01-06T20:38:55;1.83;;;0.90;;
26512;SDS011;14186;53.822;10.152;2024-01-06T20:43:57;3.88;;;1.20;;
26512;SDS011;14186;53.822;10.152;2024-01-06T20:48:57;1.48;;;0.80;;
26512;SDS011;14186;53.822;10.152;2024-01-06T20:53:57;5.93;;;2.47;;
26512;SDS011;14186;53.822;10.152;2024-01-06T20:58:59;2.38;;;0.75;;
26512;SDS011;14186;53.822;10.152;2024-01-06T21:03:59;1.27;;;0.73;;
26512;SDS011;14186;53.822;10.152;2024-01-06T21:08:59;1.83;;;0.82;;
26512;SDS011;14186;53.822;10.152;2024-01-06T21:14:01;2.75;;;0.88;;
26512;SDS011;14186;53.822;10.152;2024-01-06T21:19:01;2.92;;;1.20;;
26512;SDS011;14186;53.822;10.152;2024-01-06T21:24:01;3.47;;;0.80;;
26512;SDS011;14186;53.822;10.152;2024-01-06T21:29:03;2.45;;;0.80;;
26512;SDS011;14186;53.822;10.152;2024-01-06T21:34:03;6.40;;;1.17;;
26512;SDS011;14186;53.822;10.152;2024-01-06T21:39:03;3.72;;;0.95;;
26512;SDS011;14186;53.822;10.152;2024-01-06T21:44:05;5.72;;;1.30;;
26512;SDS011;14186;53.822;10.152;2024-01-06T21:49:05;4.30;;;1.38;;
26512;SDS011;14186;53.822;10.152;2024-01-06T21:54:06;5.72;;;1.20;;
26512;SDS011;14186;53.822;10.152;2024-01-06T21:59:07;7.25;;;1.23;;
26512;SDS011;14186;53.822;10.152;2024-01-06T22:04:08;3.55;;;1.20;;
26512;SDS011;14186;53.822;10.152;2024-01-06T22:09:08;3.50;;;1.15;;
26512;SDS011;14186;53.822;10.152;2024-01-06T22:14:10;3.15;;;1.40;;
26512;SDS011;14186;53.822;10.152;2024-01-06T22:19:10;4.47;;;1.08;;
26512;SDS011;14186;53.822;10.152;2024-01-06T22:24:10;3.53;;;1.17;;
26512;SDS011;14186;53.822;10.152;2024-01-06T22:29:11;2.33;;;0.77;;
26512;SDS011;14186;53.822;10.152;2024-01-06T22:34:12;3.90;;;1.48;;
26512;SDS011;14186;53.822;10.152;2024-01-06T22:39:12;3.08;;;1.23;;
26512;SDS011;14186;53.822;10.152;2024-01-06T22:44:14;2.67;;;1.02;;
26512;SDS011;14186;53.822;10.152;2024-01-06T22:49:14;2.13;;;0.80;;
26512;SDS011;14186;53.822;10.152;2024-01-06T22:54:14;1.63;;;0.65;;
26512;SDS011;14186;53.822;10.152;2024-01-06T22:59:16;3.15;;;0.98;;
26512;SDS011;14186;53.822;10.152;2024-01-06T23:04:16;7.65;;;2.00;;
26512;SDS011;14186;53.822;10.152;2024-01-06T23:09:16;5.05;;;1.40;;
26512;SDS011;14186;53.822;10.152;2024-01-06T23:14:18;2.92;;;1.13;;
26512;SDS011;14186;53.822;10.152;2024-01-06T23:19:18;6.80;;;1.75;;
26512;SDS011;14186;53.822;10.152;2024-01-06T23:24:19;4.22;;;1.42;;
26512;SDS011;14186;53.822;10.152;2024-01-06T23:29:21;4.35;;;0.90;;
26512;SDS011;14186;53.822;10.152;2024-01-06T23:34:21;1.52;;;0.70;;
26512;SDS011;14186;53.822;10.152;2024-01-06T23:39:22;3.53;;;1.13;;
26512;SDS011;14186;53.822;10.152;2024-01-06T23:44:23;2.28;;;1.17;;
26512;SDS011;14186;53.822;10.152;2024-01-06T23:49:23;1.58;;;0.65;;
26512;SDS011;14186;53.822;10.152;2024-01-06T23:54:24;1.63;;;0.75;;
26512;SDS011;14186;53.822;10.152;2024-01-06T23:59:25;1.45;;;0.93;;
